aviador You're here:

EIKN Decoded Metar

CONNAUGHT in IRELAND
Report Time2017-10-22 17:00:00
UTC Time2017-10-22 17:20:03
Flight Rules mvfr MVFR
Wind200° at 09 kt
W.Decomp.*RWY 27: 3.9 kt HW 8.1 kt LCW
W.Rank200° ranks 9
Current wind is below 200° avg. (9.9)
Visibility9999 m
Phenomena:N/A
Clouds:Broken 012 Hf
Broken 028 Hf
Expected CloudBase > 400 ft AGL from Temp-Dew spread
Ceiling1,200 ft
Temp10°C (ISA -5)
Dew Point09°C (94% RH)
AAT6.6°C
QNH1013 hPa
Density Alt-184 ft
Elevation210 ft
Report Wrong Elevation
Raw Report
METAR EIKN 221700Z 20009KT 170V230 9999 BKN012 BKN028 10/09 Q1013 BECMG
BKN010=

Extra information for EIKN:More info

Metar Taf Metar & Taf Last 4 Metars F.Rules Stats Wind Profile Meteogram Temp Stats Airport Information Weather charts Add Link Nearby VenuesMetar ALERT Operation Metar Decoded Social comments